sensor_id;sensor_type;location;lat;lon;timestamp;temperature;humidity
13892;DHT22;7016;48.172;8.058;2023-06-14T00:01:42;15.90;76.60
13892;DHT22;7016;48.172;8.058;2023-06-14T00:04:31;15.70;77.00
13892;DHT22;7016;48.172;8.058;2023-06-14T00:07:17;15.90;75.70
13892;DHT22;7016;48.172;8.058;2023-06-14T00:10:04;15.70;77.60
13892;DHT22;7016;48.172;8.058;2023-06-14T00:12:51;15.60;77.30
13892;DHT22;7016;48.172;8.058;2023-06-14T00:15:37;15.50;77.80
13892;DHT22;7016;48.172;8.058;2023-06-14T00:18:24;15.50;78.00
13892;DHT22;7016;48.172;8.058;2023-06-14T00:21:10;15.50;76.80
13892;DHT22;7016;48.172;8.058;2023-06-14T00:23:57;15.50;77.50
13892;DHT22;7016;48.172;8.058;2023-06-14T00:26:44;15.40;76.70
13892;DHT22;7016;48.172;8.058;2023-06-14T00:29:30;15.40;77.80
13892;DHT22;7016;48.172;8.058;2023-06-14T00:32:17;15.60;78.80
13892;DHT22;7016;48.172;8.058;2023-06-14T00:35:04;15.50;78.30
13892;DHT22;7016;48.172;8.058;2023-06-14T00:37:50;15.30;78.50
13892;DHT22;7016;48.172;8.058;2023-06-14T00:40:36;15.30;79.10
13892;DHT22;7016;48.172;8.058;2023-06-14T00:43:23;15.00;80.50
13892;DHT22;7016;48.172;8.058;2023-06-14T00:46:09;15.00;80.40
13892;DHT22;7016;48.172;8.058;2023-06-14T00:48:56;15.00;79.10
13892;DHT22;7016;48.172;8.058;2023-06-14T00:51:45;15.00;79.30
13892;DHT22;7016;48.172;8.058;2023-06-14T00:54:31;15.20;79.20
13892;DHT22;7016;48.172;8.058;2023-06-14T00:57:18;15.00;78.70
13892;DHT22;7016;48.172;8.058;2023-06-14T01:00:05;14.90;80.00
13892;DHT22;7016;48.172;8.058;2023-06-14T01:02:55;14.90;78.90
13892;DHT22;7016;48.172;8.058;2023-06-14T01:05:41;14.80;79.90
13892;DHT22;7016;48.172;8.058;2023-06-14T01:12:15;14.70;81.20
13892;DHT22;7016;48.172;8.058;2023-06-14T01:15:03;14.80;80.80
13892;DHT22;7016;48.172;8.058;2023-06-14T01:17:50;14.80;80.30
13892;DHT22;7016;48.172;8.058;2023-06-14T01:20:37;14.70;79.60
13892;DHT22;7016;48.172;8.058;2023-06-14T01:23:24;14.60;80.90
13892;DHT22;7016;48.172;8.058;2023-06-14T01:26:11;14.40;81.00
13892;DHT22;7016;48.172;8.058;2023-06-14T01:28:58;14.30;80.90
13892;DHT22;7016;48.172;8.058;2023-06-14T01:31:45;14.40;81.40
13892;DHT22;7016;48.172;8.058;2023-06-14T01:34:32;14.40;82.40
13892;DHT22;7016;48.172;8.058;2023-06-14T01:37:20;14.40;81.10
13892;DHT22;7016;48.172;8.058;2023-06-14T01:40:08;14.30;81.50
13892;DHT22;7016;48.172;8.058;2023-06-14T01:42:57;14.10;82.60
13892;DHT22;7016;48.172;8.058;2023-06-14T01:45:46;14.00;82.40
13892;DHT22;7016;48.172;8.058;2023-06-14T01:48:33;13.90;82.80
13892;DHT22;7016;48.172;8.058;2023-06-14T01:51:20;13.90;83.40
13892;DHT22;7016;48.172;8.058;2023-06-14T01:54:06;13.80;83.60
13892;DHT22;7016;48.172;8.058;2023-06-14T01:56:53;13.80;83.10
13892;DHT22;7016;48.172;8.058;2023-06-14T01:59:39;13.70;83.60
13892;DHT22;7016;48.172;8.058;2023-06-14T02:02:25;13.60;84.40
13892;DHT22;7016;48.172;8.058;2023-06-14T02:05:11;13.60;84.60
13892;DHT22;7016;48.172;8.058;2023-06-14T02:07:58;13.60;84.80
13892;DHT22;7016;48.172;8.058;2023-06-14T02:10:44;13.60;84.10
13892;DHT22;7016;48.172;8.058;2023-06-14T02:13:30;13.50;85.40
13892;DHT22;7016;48.172;8.058;2023-06-14T02:16:16;13.50;85.20
13892;DHT22;7016;48.172;8.058;2023-06-14T02:19:03;13.60;84.50
13892;DHT22;7016;48.172;8.058;2023-06-14T02:21:50;13.60;84.60
13892;DHT22;7016;48.172;8.058;2023-06-14T02:24:36;13.60;84.60
13892;DHT22;7016;48.172;8.058;2023-06-14T02:27:22;13.50;85.50
13892;DHT22;7016;48.172;8.058;2023-06-14T02:30:08;13.60;83.70
13892;DHT22;7016;48.172;8.058;2023-06-14T02:32:55;13.50;84.90
13892;DHT22;7016;48.172;8.058;2023-06-14T02:35:41;13.50;84.90
13892;DHT22;7016;48.172;8.058;2023-06-14T02:38:27;13.30;85.30
13892;DHT22;7016;48.172;8.058;2023-06-14T02:41:14;13.30;86.00
13892;DHT22;7016;48.172;8.058;2023-06-14T02:44:00;13.20;85.90
13892;DHT22;7016;48.172;8.058;2023-06-14T02:46:46;13.30;86.10
13892;DHT22;7016;48.172;8.058;2023-06-14T02:49:32;13.00;86.00
13892;DHT22;7016;48.172;8.058;2023-06-14T02:52:18;13.00;87.20
13892;DHT22;7016;48.172;8.058;2023-06-14T02:55:05;13.10;86.90
13892;DHT22;7016;48.172;8.058;2023-06-14T02:57:52;13.20;86.50
13892;DHT22;7016;48.172;8.058;2023-06-14T03:00:39;13.00;86.10
13892;DHT22;7016;48.172;8.058;2023-06-14T03:03:26;13.00;87.00
13892;DHT22;7016;48.172;8.058;2023-06-14T03:06:13;13.10;86.80
13892;DHT22;7016;48.172;8.058;2023-06-14T03:09:00;12.80;87.60
13892;DHT22;7016;48.172;8.058;2023-06-14T03:11:47;12.80;88.50
13892;DHT22;7016;48.172;8.058;2023-06-14T03:14:33;12.80;88.20
13892;DHT22;7016;48.172;8.058;2023-06-14T03:17:19;12.90;87.00
13892;DHT22;7016;48.172;8.058;2023-06-14T03:20:06;12.70;87.00
13892;DHT22;7016;48.172;8.058;2023-06-14T03:22:52;12.70;88.80
13892;DHT22;7016;48.172;8.058;2023-06-14T03:25:40;12.70;88.60
13892;DHT22;7016;48.172;8.058;2023-06-14T03:28:28;12.40;88.50
13892;DHT22;7016;48.172;8.058;2023-06-14T03:31:14;12.40;88.90
13892;DHT22;7016;48.172;8.058;2023-06-14T03:34:01;12.40;89.20
13892;DHT22;7016;48.172;8.058;2023-06-14T03:36:47;12.40;89.70
13892;DHT22;7016;48.172;8.058;2023-06-14T03:39:34;12.30;89.60
13892;DHT22;7016;48.172;8.058;2023-06-14T03:42:20;12.30;90.20
13892;DHT22;7016;48.172;8.058;2023-06-14T03:45:07;12.30;90.20
13892;DHT22;7016;48.172;8.058;2023-06-14T03:47:53;12.30;90.30
13892;DHT22;7016;48.172;8.058;2023-06-14T03:50:40;12.40;89.40
13892;DHT22;7016;48.172;8.058;2023-06-14T03:53:28;12.30;90.10
13892;DHT22;7016;48.172;8.058;2023-06-14T03:56:15;12.30;90.40
13892;DHT22;7016;48.172;8.058;2023-06-14T03:59:02;12.50;89.30
13892;DHT22;7016;48.172;8.058;2023-06-14T04:01:48;12.50;89.50
13892;DHT22;7016;48.172;8.058;2023-06-14T04:04:35;12.40;90.40
13892;DHT22;7016;48.172;8.058;2023-06-14T04:07:21;12.40;90.60
13892;DHT22;7016;48.172;8.058;2023-06-14T04:10:08;12.30;90.70
13892;DHT22;7016;48.172;8.058;2023-06-14T04:12:55;12.30;90.80
13892;DHT22;7016;48.172;8.058;2023-06-14T04:15:41;12.40;90.60
13892;DHT22;7016;48.172;8.058;2023-06-14T04:18:31;12.60;90.10
13892;DHT22;7016;48.172;8.058;2023-06-14T04:21:18;12.60;90.40
13892;DHT22;7016;48.172;8.058;2023-06-14T04:24:04;12.60;90.00
13892;DHT22;7016;48.172;8.058;2023-06-14T04:26:51;12.60;90.60
13892;DHT22;7016;48.172;8.058;2023-06-14T04:29:37;12.50;91.00
13892;DHT22;7016;48.172;8.058;2023-06-14T04:32:25;12.60;91.40
13892;DHT22;7016;48.172;8.058;2023-06-14T04:35:12;12.90;92.90
13892;DHT22;7016;48.172;8.058;2023-06-14T04:37:59;12.90;90.40
13892;DHT22;7016;48.172;8.058;2023-06-14T04:40:45;12.20;90.40
13892;DHT22;7016;48.172;8.058;2023-06-14T04:43:33;12.60;91.20
13892;DHT22;7016;48.172;8.058;2023-06-14T04:46:24;12.90;91.80
13892;DHT22;7016;48.172;8.058;2023-06-14T04:49:10;12.80;91.30
13892;DHT22;7016;48.172;8.058;2023-06-14T04:52:01;12.70;91.50
13892;DHT22;7016;48.172;8.058;2023-06-14T04:54:47;12.70;91.60
13892;DHT22;7016;48.172;8.058;2023-06-14T04:57:34;12.70;92.10
13892;DHT22;7016;48.172;8.058;2023-06-14T05:00:21;12.80;92.00
13892;DHT22;7016;48.172;8.058;2023-06-14T05:03:07;12.70;92.10
13892;DHT22;7016;48.172;8.058;2023-06-14T05:05:53;12.70;92.40
13892;DHT22;7016;48.172;8.058;2023-06-14T05:08:39;12.90;92.30
13892;DHT22;7016;48.172;8.058;2023-06-14T05:11:25;12.80;92.60
13892;DHT22;7016;48.172;8.058;2023-06-14T05:14:13;12.90;92.60
13892;DHT22;7016;48.172;8.058;2023-06-14T05:16:59;12.90;92.80
13892;DHT22;7016;48.172;8.058;2023-06-14T05:19:48;12.90;92.20
13892;DHT22;7016;48.172;8.058;2023-06-14T05:22:38;13.00;92.50
13892;DHT22;7016;48.172;8.058;2023-06-14T05:25:24;13.10;92.40
13892;DHT22;7016;48.172;8.058;2023-06-14T05:28:11;13.20;91.50
13892;DHT22;7016;48.172;8.058;2023-06-14T05:30:57;13.20;91.80
13892;DHT22;7016;48.172;8.058;2023-06-14T05:33:44;13.30;92.00
13892;DHT22;7016;48.172;8.058;2023-06-14T05:36:30;13.60;91.10
13892;DHT22;7016;48.172;8.058;2023-06-14T05:39:16;14.00;89.00
13892;DHT22;7016;48.172;8.058;2023-06-14T05:42:03;14.20;89.10
13892;DHT22;7016;48.172;8.058;2023-06-14T05:44:49;14.50;88.50
13892;DHT22;7016;48.172;8.058;2023-06-14T05:47:35;14.70;88.30
13892;DHT22;7016;48.172;8.058;2023-06-14T05:50:21;15.10;88.50
13892;DHT22;7016;48.172;8.058;2023-06-14T05:53:08;15.30;87.80
13892;DHT22;7016;48.172;8.058;2023-06-14T05:55:54;15.60;86.30
13892;DHT22;7016;48.172;8.058;2023-06-14T05:58:41;15.70;85.20
13892;DHT22;7016;48.172;8.058;2023-06-14T06:01:27;15.90;84.20
13892;DHT22;7016;48.172;8.058;2023-06-14T06:04:13;15.90;85.00
13892;DHT22;7016;48.172;8.058;2023-06-14T06:06:59;16.10;85.50
13892;DHT22;7016;48.172;8.058;2023-06-14T06:09:46;16.40;84.50
13892;DHT22;7016;48.172;8.058;2023-06-14T06:12:32;16.40;85.70
13892;DHT22;7016;48.172;8.058;2023-06-14T06:15:19;16.60;86.20
13892;DHT22;7016;48.172;8.058;2023-06-14T06:18:05;16.80;85.80
13892;DHT22;7016;48.172;8.058;2023-06-14T06:20:52;17.00;86.70
13892;DHT22;7016;48.172;8.058;2023-06-14T06:23:38;17.10;85.90
13892;DHT22;7016;48.172;8.058;2023-06-14T06:26:24;17.30;85.10
13892;DHT22;7016;48.172;8.058;2023-06-14T06:29:12;17.40;84.10
13892;DHT22;7016;48.172;8.058;2023-06-14T06:31:58;17.50;84.90
13892;DHT22;7016;48.172;8.058;2023-06-14T06:34:44;17.60;84.90
13892;DHT22;7016;48.172;8.058;2023-06-14T06:37:31;17.80;86.00
13892;DHT22;7016;48.172;8.058;2023-06-14T06:40:17;17.90;85.30
13892;DHT22;7016;48.172;8.058;2023-06-14T06:43:03;18.00;85.80
13892;DHT22;7016;48.172;8.058;2023-06-14T06:45:49;18.10;85.20
13892;DHT22;7016;48.172;8.058;2023-06-14T06:48:36;18.30;85.50
13892;DHT22;7016;48.172;8.058;2023-06-14T06:51:22;18.40;85.30
13892;DHT22;7016;48.172;8.058;2023-06-14T06:54:08;18.60;84.00
13892;DHT22;7016;48.172;8.058;2023-06-14T06:56:54;18.70;84.80
13892;DHT22;7016;48.172;8.058;2023-06-14T06:59:41;18.80;85.70
13892;DHT22;7016;48.172;8.058;2023-06-14T07:02:27;18.90;84.90
13892;DHT22;7016;48.172;8.058;2023-06-14T07:05:13;19.10;85.70
13892;DHT22;7016;48.172;8.058;2023-06-14T07:08:00;19.20;84.40
13892;DHT22;7016;48.172;8.058;2023-06-14T07:10:46;19.30;82.40
13892;DHT22;7016;48.172;8.058;2023-06-14T07:13:32;19.40;83.70
13892;DHT22;7016;48.172;8.058;2023-06-14T07:16:18;19.50;82.80
13892;DHT22;7016;48.172;8.058;2023-06-14T07:19:05;19.60;81.90
13892;DHT22;7016;48.172;8.058;2023-06-14T07:21:51;19.70;82.30
13892;DHT22;7016;48.172;8.058;2023-06-14T07:24:37;19.80;82.70
13892;DHT22;7016;48.172;8.058;2023-06-14T07:27:23;19.90;81.00
13892;DHT22;7016;48.172;8.058;2023-06-14T07:30:10;20.00;80.70
13892;DHT22;7016;48.172;8.058;2023-06-14T07:32:56;20.10;80.90
13892;DHT22;7016;48.172;8.058;2023-06-14T07:35:42;20.20;81.50
13892;DHT22;7016;48.172;8.058;2023-06-14T07:38:29;20.40;81.70
13892;DHT22;7016;48.172;8.058;2023-06-14T07:41:16;20.50;78.30
13892;DHT22;7016;48.172;8.058;2023-06-14T07:44:02;20.60;75.70
13892;DHT22;7016;48.172;8.058;2023-06-14T07:46:48;20.70;75.60
13892;DHT22;7016;48.172;8.058;2023-06-14T07:49:37;20.90;67.70
13892;DHT22;7016;48.172;8.058;2023-06-14T07:52:23;21.20;69.80
13892;DHT22;7016;48.172;8.058;2023-06-14T07:55:09;21.30;66.20
13892;DHT22;7016;48.172;8.058;2023-06-14T07:57:56;21.40;61.90
13892;DHT22;7016;48.172;8.058;2023-06-14T08:00:42;21.50;64.50
13892;DHT22;7016;48.172;8.058;2023-06-14T08:03:28;21.70;61.10
13892;DHT22;7016;48.172;8.058;2023-06-14T08:06:15;21.80;60.90
13892;DHT22;7016;48.172;8.058;2023-06-14T08:09:02;22.00;61.60
13892;DHT22;7016;48.172;8.058;2023-06-14T08:11:48;22.00;60.50
13892;DHT22;7016;48.172;8.058;2023-06-14T08:14:34;22.00;58.30
13892;DHT22;7016;48.172;8.058;2023-06-14T08:17:20;22.10;58.70
13892;DHT22;7016;48.172;8.058;2023-06-14T08:20:07;23.20;59.30
13892;DHT22;7016;48.172;8.058;2023-06-14T08:22:53;22.30;57.60
13892;DHT22;7016;48.172;8.058;2023-06-14T08:25:42;22.40;58.20
13892;DHT22;7016;48.172;8.058;2023-06-14T08:28:28;22.60;59.40
13892;DHT22;7016;48.172;8.058;2023-06-14T08:31:14;22.60;58.60
13892;DHT22;7016;48.172;8.058;2023-06-14T08:34:01;22.70;59.20
13892;DHT22;7016;48.172;8.058;2023-06-14T08:36:47;22.80;56.80
13892;DHT22;7016;48.172;8.058;2023-06-14T08:39:33;22.90;57.30
13892;DHT22;7016;48.172;8.058;2023-06-14T08:42:21;22.90;56.20
13892;DHT22;7016;48.172;8.058;2023-06-14T08:45:09;23.10;56.30
13892;DHT22;7016;48.172;8.058;2023-06-14T08:47:56;23.10;55.20
13892;DHT22;7016;48.172;8.058;2023-06-14T08:50:46;23.00;54.40
13892;DHT22;7016;48.172;8.058;2023-06-14T08:53:34;23.00;53.40
13892;DHT22;7016;48.172;8.058;2023-06-14T08:56:23;23.20;54.50
13892;DHT22;7016;48.172;8.058;2023-06-14T08:59:12;23.20;54.20
13892;DHT22;7016;48.172;8.058;2023-06-14T09:01:58;23.30;55.80
13892;DHT22;7016;48.172;8.058;2023-06-14T09:04:46;23.40;55.50
13892;DHT22;7016;48.172;8.058;2023-06-14T09:07:32;23.50;54.40
13892;DHT22;7016;48.172;8.058;2023-06-14T09:10:18;23.50;53.10
13892;DHT22;7016;48.172;8.058;2023-06-14T09:13:06;23.60;55.90
13892;DHT22;7016;48.172;8.058;2023-06-14T09:15:52;23.70;54.40
13892;DHT22;7016;48.172;8.058;2023-06-14T09:18:46;23.70;52.90
13892;DHT22;7016;48.172;8.058;2023-06-14T09:21:35;23.80;53.90
13892;DHT22;7016;48.172;8.058;2023-06-14T09:24:26;23.90;54.50
13892;DHT22;7016;48.172;8.058;2023-06-14T09:27:15;23.80;53.20
13892;DHT22;7016;48.172;8.058;2023-06-14T09:30:03;24.00;54.40
13892;DHT22;7016;48.172;8.058;2023-06-14T09:32:53;23.90;53.00
13892;DHT22;7016;48.172;8.058;2023-06-14T09:35:39;23.90;52.10
13892;DHT22;7016;48.172;8.058;2023-06-14T09:38:26;24.00;53.60
13892;DHT22;7016;48.172;8.058;2023-06-14T09:41:12;24.00;53.30
13892;DHT22;7016;48.172;8.058;2023-06-14T09:43:59;24.00;52.90
13892;DHT22;7016;48.172;8.058;2023-06-14T09:46:47;24.00;52.40
13892;DHT22;7016;48.172;8.058;2023-06-14T09:49:34;24.10;53.60
13892;DHT22;7016;48.172;8.058;2023-06-14T09:52:21;24.20;52.00
13892;DHT22;7016;48.172;8.058;2023-06-14T09:55:12;24.00;52.20
13892;DHT22;7016;48.172;8.058;2023-06-14T09:58:00;24.00;51.60
13892;DHT22;7016;48.172;8.058;2023-06-14T10:00:50;24.00;52.50
13892;DHT22;7016;48.172;8.058;2023-06-14T10:03:38;24.20;52.90
13892;DHT22;7016;48.172;8.058;2023-06-14T10:06:26;24.30;53.90
13892;DHT22;7016;48.172;8.058;2023-06-14T10:09:14;24.60;55.00
13892;DHT22;7016;48.172;8.058;2023-06-14T10:12:01;24.60;52.80
13892;DHT22;7016;48.172;8.058;2023-06-14T10:14:49;24.60;54.60
13892;DHT22;7016;48.172;8.058;2023-06-14T10:17:59;24.70;52.60
13892;DHT22;7016;48.172;8.058;2023-06-14T10:20:54;24.70;52.30
13892;DHT22;7016;48.172;8.058;2023-06-14T10:23:43;24.70;52.20
13892;DHT22;7016;48.172;8.058;2023-06-14T10:26:30;24.70;53.30
13892;DHT22;7016;48.172;8.058;2023-06-14T10:29:16;24.60;51.30
13892;DHT22;7016;48.172;8.058;2023-06-14T10:32:02;24.60;52.50
13892;DHT22;7016;48.172;8.058;2023-06-14T10:34:55;24.70;51.70
13892;DHT22;7016;48.172;8.058;2023-06-14T10:37:42;24.90;53.00
13892;DHT22;7016;48.172;8.058;2023-06-14T10:40:31;24.90;52.50
13892;DHT22;7016;48.172;8.058;2023-06-14T10:43:23;24.90;53.20
13892;DHT22;7016;48.172;8.058;2023-06-14T10:46:17;25.10;53.90
13892;DHT22;7016;48.172;8.058;2023-06-14T10:49:04;24.90;53.80
13892;DHT22;7016;48.172;8.058;2023-06-14T10:51:51;25.00;54.60
13892;DHT22;7016;48.172;8.058;2023-06-14T10:57:54;25.00;51.00
13892;DHT22;7016;48.172;8.058;2023-06-14T11:00:46;24.90;51.40
13892;DHT22;7016;48.172;8.058;2023-06-14T11:03:51;24.90;51.00
13892;DHT22;7016;48.172;8.058;2023-06-14T11:09:43;25.20;53.70
13892;DHT22;7016;48.172;8.058;2023-06-14T11:12:39;25.30;52.80
13892;DHT22;7016;48.172;8.058;2023-06-14T11:15:33;25.30;51.70
13892;DHT22;7016;48.172;8.058;2023-06-14T11:18:21;25.30;52.10
13892;DHT22;7016;48.172;8.058;2023-06-14T11:21:10;25.20;50.50
13892;DHT22;7016;48.172;8.058;2023-06-14T11:23:56;25.20;51.50
13892;DHT22;7016;48.172;8.058;2023-06-14T11:26:42;25.20;51.70
13892;DHT22;7016;48.172;8.058;2023-06-14T11:29:29;25.30;49.20
13892;DHT22;7016;48.172;8.058;2023-06-14T11:32:16;25.40;51.10
13892;DHT22;7016;48.172;8.058;2023-06-14T11:35:03;25.10;51.20
13892;DHT22;7016;48.172;8.058;2023-06-14T11:37:54;25.20;51.80
13892;DHT22;7016;48.172;8.058;2023-06-14T11:40:42;25.20;50.00
13892;DHT22;7016;48.172;8.058;2023-06-14T11:43:28;25.30;52.30
13892;DHT22;7016;48.172;8.058;2023-06-14T11:46:17;25.50;53.50
13892;DHT22;7016;48.172;8.058;2023-06-14T11:49:08;25.50;50.20
13892;DHT22;7016;48.172;8.058;2023-06-14T11:51:55;25.50;51.00
13892;DHT22;7016;48.172;8.058;2023-06-14T11:54:41;25.60;52.70
13892;DHT22;7016;48.172;8.058;2023-06-14T11:57:28;25.60;53.00
13892;DHT22;7016;48.172;8.058;2023-06-14T12:00:15;25.90;53.20
13892;DHT22;7016;48.172;8.058;2023-06-14T12:03:01;26.00;53.40
13892;DHT22;7016;48.172;8.058;2023-06-14T12:05:49;26.10;52.40
13892;DHT22;7016;48.172;8.058;2023-06-14T12:08:38;25.90;51.90
13892;DHT22;7016;48.172;8.058;2023-06-14T12:11:33;25.80;52.60
13892;DHT22;7016;48.172;8.058;2023-06-14T12:14:19;26.00;53.60
13892;DHT22;7016;48.172;8.058;2023-06-14T12:17:06;25.50;53.80
13892;DHT22;7016;48.172;8.058;2023-06-14T12:19:53;25.40;53.60
13892;DHT22;7016;48.172;8.058;2023-06-14T12:22:52;25.50;54.10
13892;DHT22;7016;48.172;8.058;2023-06-14T12:25:39;25.80;54.80
13892;DHT22;7016;48.172;8.058;2023-06-14T12:28:31;26.10;55.20
13892;DHT22;7016;48.172;8.058;2023-06-14T12:31:17;26.00;55.70
13892;DHT22;7016;48.172;8.058;2023-06-14T12:34:04;26.00;57.80
13892;DHT22;7016;48.172;8.058;2023-06-14T12:36:51;26.10;55.70
13892;DHT22;7016;48.172;8.058;2023-06-14T12:39:37;26.00;56.30
13892;DHT22;7016;48.172;8.058;2023-06-14T12:42:25;26.10;55.90
13892;DHT22;7016;48.172;8.058;2023-06-14T12:45:11;26.10;56.00
13892;DHT22;7016;48.172;8.058;2023-06-14T12:47:57;26.00;56.00
13892;DHT22;7016;48.172;8.058;2023-06-14T12:50:43;26.10;54.20
13892;DHT22;7016;48.172;8.058;2023-06-14T12:53:29;26.00;53.40
13892;DHT22;7016;48.172;8.058;2023-06-14T12:56:16;26.00;55.10
13892;DHT22;7016;48.172;8.058;2023-06-14T12:59:02;26.20;55.20
13892;DHT22;7016;48.172;8.058;2023-06-14T13:01:48;26.30;55.60
13892;DHT22;7016;48.172;8.058;2023-06-14T13:04:36;26.30;54.50
13892;DHT22;7016;48.172;8.058;2023-06-14T13:07:22;26.30;54.90
13892;DHT22;7016;48.172;8.058;2023-06-14T13:10:08;26.30;54.70
13892;DHT22;7016;48.172;8.058;2023-06-14T13:12:55;26.30;55.00
13892;DHT22;7016;48.172;8.058;2023-06-14T13:15:44;26.40;57.10
13892;DHT22;7016;48.172;8.058;2023-06-14T13:18:31;26.30;55.80
13892;DHT22;7016;48.172;8.058;2023-06-14T13:21:18;26.30;56.40
13892;DHT22;7016;48.172;8.058;2023-06-14T13:24:04;26.30;57.60
13892;DHT22;7016;48.172;8.058;2023-06-14T13:26:50;26.10;55.80
13892;DHT22;7016;48.172;8.058;2023-06-14T13:29:36;25.90;54.90
13892;DHT22;7016;48.172;8.058;2023-06-14T13:32:23;26.00;56.30
13892;DHT22;7016;48.172;8.058;2023-06-14T13:35:10;25.90;55.50
13892;DHT22;7016;48.172;8.058;2023-06-14T13:37:56;25.90;55.30
13892;DHT22;7016;48.172;8.058;2023-06-14T13:40:42;26.10;55.30
13892;DHT22;7016;48.172;8.058;2023-06-14T13:43:28;26.20;55.70
13892;DHT22;7016;48.172;8.058;2023-06-14T13:49:06;26.20;55.00
13892;DHT22;7016;48.172;8.058;2023-06-14T13:51:53;26.20;56.40
13892;DHT22;7016;48.172;8.058;2023-06-14T13:54:39;26.20;55.20
13892;DHT22;7016;48.172;8.058;2023-06-14T13:57:25;26.20;56.20
13892;DHT22;7016;48.172;8.058;2023-06-14T14:00:12;26.20;55.40
13892;DHT22;7016;48.172;8.058;2023-06-14T14:03:01;26.10;55.20
13892;DHT22;7016;48.172;8.058;2023-06-14T14:05:49;26.10;55.10
13892;DHT22;7016;48.172;8.058;2023-06-14T14:08:36;26.10;56.60
13892;DHT22;7016;48.172;8.058;2023-06-14T14:11:22;26.10;57.20
13892;DHT22;7016;48.172;8.058;2023-06-14T14:14:08;26.10;55.50
13892;DHT22;7016;48.172;8.058;2023-06-14T14:16:54;26.00;55.50
13892;DHT22;7016;48.172;8.058;2023-06-14T14:19:41;26.00;54.70
13892;DHT22;7016;48.172;8.058;2023-06-14T14:22:27;26.00;55.80
13892;DHT22;7016;48.172;8.058;2023-06-14T14:25:13;26.00;54.90
13892;DHT22;7016;48.172;8.058;2023-06-14T14:27:59;26.00;55.30
13892;DHT22;7016;48.172;8.058;2023-06-14T14:30:46;26.00;56.20
13892;DHT22;7016;48.172;8.058;2023-06-14T14:33:33;26.10;57.00
13892;DHT22;7016;48.172;8.058;2023-06-14T14:36:20;26.10;55.40
13892;DHT22;7016;48.172;8.058;2023-06-14T14:39:07;26.00;55.00
13892;DHT22;7016;48.172;8.058;2023-06-14T14:41:53;26.00;55.60
13892;DHT22;7016;48.172;8.058;2023-06-14T14:44:39;25.90;55.30
13892;DHT22;7016;48.172;8.058;2023-06-14T14:47:25;26.00;56.10
13892;DHT22;7016;48.172;8.058;2023-06-14T14:50:12;25.90;55.50
13892;DHT22;7016;48.172;8.058;2023-06-14T14:52:58;26.00;56.30
13892;DHT22;7016;48.172;8.058;2023-06-14T14:55:44;25.90;56.70
13892;DHT22;7016;48.172;8.058;2023-06-14T14:58:31;26.00;57.00
13892;DHT22;7016;48.172;8.058;2023-06-14T15:01:17;26.00;57.50
13892;DHT22;7016;48.172;8.058;2023-06-14T15:04:04;25.90;56.60
13892;DHT22;7016;48.172;8.058;2023-06-14T15:06:50;25.90;57.30
13892;DHT22;7016;48.172;8.058;2023-06-14T15:09:36;25.90;55.60
13892;DHT22;7016;48.172;8.058;2023-06-14T15:12:22;25.90;56.20
13892;DHT22;7016;48.172;8.058;2023-06-14T15:15:09;25.60;56.00
13892;DHT22;7016;48.172;8.058;2023-06-14T15:17:56;25.60;57.20
13892;DHT22;7016;48.172;8.058;2023-06-14T15:20:42;25.80;57.00
13892;DHT22;7016;48.172;8.058;2023-06-14T15:23:28;25.90;57.50
13892;DHT22;7016;48.172;8.058;2023-06-14T15:26:14;25.80;56.40
13892;DHT22;7016;48.172;8.058;2023-06-14T15:29:01;25.70;55.90
13892;DHT22;7016;48.172;8.058;2023-06-14T15:31:47;25.70;56.40
13892;DHT22;7016;48.172;8.058;2023-06-14T15:34:33;25.70;56.50
13892;DHT22;7016;48.172;8.058;2023-06-14T15:37:20;25.70;56.70
13892;DHT22;7016;48.172;8.058;2023-06-14T15:40:06;25.70;56.00
13892;DHT22;7016;48.172;8.058;2023-06-14T15:42:52;25.70;56.90
13892;DHT22;7016;48.172;8.058;2023-06-14T15:45:39;25.80;57.50
13892;DHT22;7016;48.172;8.058;2023-06-14T15:48:25;25.60;56.50
13892;DHT22;7016;48.172;8.058;2023-06-14T15:51:11;25.50;56.90
13892;DHT22;7016;48.172;8.058;2023-06-14T15:53:58;25.50;56.70
13892;DHT22;7016;48.172;8.058;2023-06-14T15:56:44;25.50;57.30
13892;DHT22;7016;48.172;8.058;2023-06-14T15:59:30;25.40;56.80
13892;DHT22;7016;48.172;8.058;2023-06-14T16:02:16;25.40;56.70
13892;DHT22;7016;48.172;8.058;2023-06-14T16:05:02;25.40;56.80
13892;DHT22;7016;48.172;8.058;2023-06-14T16:07:49;25.40;57.60
13892;DHT22;7016;48.172;8.058;2023-06-14T16:10:35;25.40;56.70
13892;DHT22;7016;48.172;8.058;2023-06-14T16:13:22;25.40;57.30
13892;DHT22;7016;48.172;8.058;2023-06-14T16:16:09;25.40;57.20
13892;DHT22;7016;48.172;8.058;2023-06-14T16:18:55;25.40;57.10
13892;DHT22;7016;48.172;8.058;2023-06-14T16:21:42;25.40;57.30
13892;DHT22;7016;48.172;8.058;2023-06-14T16:24:28;25.40;58.10
13892;DHT22;7016;48.172;8.058;2023-06-14T16:27:14;25.30;58.00
13892;DHT22;7016;48.172;8.058;2023-06-14T16:30:00;25.10;57.50
13892;DHT22;7016;48.172;8.058;2023-06-14T16:32:46;25.10;58.50
13892;DHT22;7016;48.172;8.058;2023-06-14T16:35:33;25.20;58.40
13892;DHT22;7016;48.172;8.058;2023-06-14T16:38:19;25.10;58.10
13892;DHT22;7016;48.172;8.058;2023-06-14T16:41:07;25.20;57.90
13892;DHT22;7016;48.172;8.058;2023-06-14T16:43:53;25.30;58.80
13892;DHT22;7016;48.172;8.058;2023-06-14T16:46:39;25.30;58.60
13892;DHT22;7016;48.172;8.058;2023-06-14T16:49:26;25.20;58.30
13892;DHT22;7016;48.172;8.058;2023-06-14T16:52:12;25.20;58.90
13892;DHT22;7016;48.172;8.058;2023-06-14T16:54:58;25.10;58.80
13892;DHT22;7016;48.172;8.058;2023-06-14T16:57:44;25.00;58.90
13892;DHT22;7016;48.172;8.058;2023-06-14T17:00:30;24.90;58.50
13892;DHT22;7016;48.172;8.058;2023-06-14T17:03:16;25.00;58.80
13892;DHT22;7016;48.172;8.058;2023-06-14T17:06:03;25.10;59.10
13892;DHT22;7016;48.172;8.058;2023-06-14T17:08:49;24.90;59.00
13892;DHT22;7016;48.172;8.058;2023-06-14T17:11:37;24.90;59.20
13892;DHT22;7016;48.172;8.058;2023-06-14T17:14:24;25.00;59.10
13892;DHT22;7016;48.172;8.058;2023-06-14T17:17:10;25.00;59.30
13892;DHT22;7016;48.172;8.058;2023-06-14T17:19:56;24.90;59.00
13892;DHT22;7016;48.172;8.058;2023-06-14T17:22:43;25.00;59.00
13892;DHT22;7016;48.172;8.058;2023-06-14T17:25:29;24.90;59.00
13892;DHT22;7016;48.172;8.058;2023-06-14T17:28:15;24.80;59.20
13892;DHT22;7016;48.172;8.058;2023-06-14T17:31:03;24.70;59.40
13892;DHT22;7016;48.172;8.058;2023-06-14T17:33:49;24.70;59.50
13892;DHT22;7016;48.172;8.058;2023-06-14T17:36:35;24.70;60.20
13892;DHT22;7016;48.172;8.058;2023-06-14T17:39:21;24.80;61.30
13892;DHT22;7016;48.172;8.058;2023-06-14T17:42:08;24.70;60.30
13892;DHT22;7016;48.172;8.058;2023-06-14T17:44:54;24.70;59.80
13892;DHT22;7016;48.172;8.058;2023-06-14T17:47:41;24.60;59.30
13892;DHT22;7016;48.172;8.058;2023-06-14T17:50:27;24.60;59.80
13892;DHT22;7016;48.172;8.058;2023-06-14T17:53:13;24.60;60.30
13892;DHT22;7016;48.172;8.058;2023-06-14T17:56:02;24.50;59.60
13892;DHT22;7016;48.172;8.058;2023-06-14T17:58:49;24.50;60.50
13892;DHT22;7016;48.172;8.058;2023-06-14T18:01:36;24.50;60.10
13892;DHT22;7016;48.172;8.058;2023-06-14T18:04:22;24.40;60.90